Time;durP1;ratioP1;P1;durP2;ratioP2;P2;SDS_P1;SDS_P2;PMS_P1;PMS_P2;Temp;Humidity;BMP_temperature;BMP_pressure;BME280_temperature;BME280_humidity;BME280_pressure;Samples;Min_cycle;Max_cycle;Signal;HPM_P1;HPM_P2
2023/09/26 00:00:54;;;;;;;3.78;3.22;;;18.80;73.00;;;;;;6124787;23;20518;-82
2023/09/26 00:03:20;;;;;;;3.70;3.20;;;18.80;73.00;;;;;;6124800;23;20139;-82
2023/09/26 00:05:46;;;;;;;3.97;3.38;;;18.80;73.10;;;;;;6150736;22;20140;-82
2023/09/26 00:08:12;;;;;;;4.20;3.45;;;18.80;73.10;;;;;;6124049;23;20587;-82
2023/09/26 00:10:38;;;;;;;3.78;3.38;;;18.80;73.10;;;;;;6124652;23;20158;-82
2023/09/26 00:13:04;;;;;;;3.85;3.40;;;18.80;73.00;;;;;;6124119;23;20587;-81
2023/09/26 00:15:29;;;;;;;4.38;3.25;;;18.80;73.00;;;;;;6124384;23;20175;-81
2023/09/26 00:17:57;;;;;;;4.45;3.58;;;18.80;73.10;;;;;;6125145;23;20200;-81
2023/09/26 00:20:26;;;;;;;3.88;3.30;;;18.80;73.00;;;;;;6151515;23;20132;-82
2023/09/26 00:22:52;;;;;;;4.07;3.42;;;18.80;73.00;;;;;;6126626;23;20132;-83
2023/09/26 00:25:17;;;;;;;3.85;3.40;;;18.80;73.10;;;;;;6153689;22;20143;-82
2023/09/26 00:27:43;;;;;;;3.78;3.10;;;18.80;73.00;;;;;;6122225;22;20223;-82
2023/09/26 00:30:10;;;;;;;3.83;3.33;;;18.80;73.00;;;;;;6122800;23;20152;-82
2023/09/26 00:32:38;;;;;;;4.20;3.80;;;18.80;73.90;;;;;;6122447;23;20531;-82
2023/09/26 00:35:05;;;;;;;4.05;3.40;;;18.90;73.10;;;;;;6121855;23;20164;-81
2023/09/26 00:37:31;;;;;;;4.78;3.53;;;18.80;73.10;;;;;;6119560;23;20451;-83
2023/09/26 00:39:56;;;;;;;3.53;3.20;;;18.80;73.10;;;;;;6094896;23;20144;-83
2023/09/26 00:42:22;;;;;;;4.32;3.50;;;18.70;73.00;;;;;;6119527;23;20140;-83
2023/09/26 00:44:48;;;;;;;3.70;3.33;;;18.80;73.20;;;;;;6119793;23;20231;-82
2023/09/26 00:47:16;;;;;;;4.38;3.42;;;18.80;73.20;;;;;;6119669;23;20182;-82
2023/09/26 00:49:41;;;;;;;3.42;3.13;;;18.80;73.20;;;;;;6119524;23;20147;-82
2023/09/26 00:52:07;;;;;;;4.00;3.28;;;18.80;73.20;;;;;;6118913;23;20231;-82
2023/09/26 00:54:33;;;;;;;4.18;3.47;;;18.80;73.20;;;;;;6119270;23;20202;-82
2023/09/26 00:56:58;;;;;;;3.90;3.42;;;18.80;73.20;;;;;;6119660;23;20160;-82
2023/09/26 00:59:24;;;;;;;4.70;3.60;;;18.80;73.20;;;;;;6095206;23;20519;-82
2023/09/26 01:01:50;;;;;;;4.40;3.25;;;18.80;73.20;;;;;;6095525;23;20227;-81
2023/09/26 01:04:16;;;;;;;4.00;3.60;;;18.80;73.70;;;;;;6096243;23;20180;-82
2023/09/26 01:06:43;;;;;;;4.18;3.55;;;18.80;73.10;;;;;;6096931;23;20206;-82
2023/09/26 01:09:10;;;;;;;4.05;3.30;;;18.80;73.20;;;;;;6095812;23;20160;-82
2023/09/26 01:11:37;;;;;;;3.85;3.30;;;18.80;73.20;;;;;;6120554;23;20191;-82
2023/09/26 01:14:03;;;;;;;3.72;3.33;;;18.80;73.20;;;;;;6120479;23;20480;-81
2023/09/26 01:16:29;;;;;;;4.47;3.53;;;18.80;73.20;;;;;;6120596;23;20193;-82
2023/09/26 01:18:54;;;;;;;4.05;3.30;;;18.80;73.20;;;;;;6096387;23;20572;-82
2023/09/26 01:21:20;;;;;;;4.05;3.65;;;18.80;73.20;;;;;;6120710;23;20471;-82
2023/09/26 01:23:52;;;;;;;3.97;3.58;;;18.80;73.20;;;;;;6096345;23;20175;-82
2023/09/26 01:26:18;;;;;;;4.10;3.60;;;18.80;73.20;;;;;;6120540;23;20146;-82
2023/09/26 01:28:45;;;;;;;4.13;3.63;;;18.80;73.20;;;;;;6139844;22;20584;-82
2023/09/26 01:31:10;;;;;;;3.80;3.33;;;18.80;73.20;;;;;;6125791;23;20136;-82
2023/09/26 01:33:36;;;;;;;4.00;3.55;;;18.80;73.20;;;;;;6101206;23;20613;-83
2023/09/26 01:36:02;;;;;;;3.60;3.25;;;18.80;73.30;;;;;;6125520;23;20143;-83
2023/09/26 01:38:28;;;;;;;4.18;3.30;;;18.80;73.30;;;;;;6151327;22;20136;-82
2023/09/26 01:40:54;;;;;;;3.63;3.25;;;18.80;73.30;;;;;;6125636;23;20239;-82
2023/09/26 01:43:19;;;;;;;3.65;3.30;;;18.90;73.40;;;;;;6151645;22;20207;-84
2023/09/26 01:45:45;;;;;;;3.85;3.42;;;18.80;73.30;;;;;;6125410;23;20144;-82
2023/09/26 01:48:12;;;;;;;3.60;3.22;;;18.80;73.30;;;;;;6151530;22;20136;-81
2023/09/26 01:50:39;;;;;;;3.85;3.40;;;18.80;73.30;;;;;;6101357;23;20158;-82
2023/09/26 01:53:05;;;;;;;3.95;3.55;;;18.80;73.30;;;;;;6125471;23;20218;-83
2023/09/26 01:55:30;;;;;;;3.63;3.30;;;18.80;73.30;;;;;;6125296;23;20175;-82
2023/09/26 01:57:56;;;;;;;3.47;3.17;;;18.80;73.30;;;;;;6101217;23;20503;-84
2023/09/26 02:00:22;;;;;;;4.82;3.70;;;18.80;73.30;;;;;;6101613;23;20206;-82
2023/09/26 02:02:49;;;;;;;3.85;3.28;;;18.80;73.30;;;;;;6151123;22;20143;-82
2023/09/26 02:05:17;;;;;;;3.60;3.30;;;18.80;73.30;;;;;;6151413;23;20194;-83
2023/09/26 02:07:43;;;;;;;3.35;3.05;;;18.80;73.30;;;;;;6124305;23;20148;-83
2023/09/26 02:10:09;;;;;;;3.90;3.42;;;18.80;73.30;;;;;;6125897;23;20171;-83
2023/09/26 02:12:37;;;;;;;3.95;3.40;;;18.80;73.30;;;;;;6125030;23;20139;-82
2023/09/26 02:15:05;;;;;;;4.13;3.30;;;18.80;73.30;;;;;;6125323;23;20221;-81
2023/09/26 02:17:33;;;;;;;3.80;3.40;;;18.80;73.30;;;;;;6125645;23;20136;-82
2023/09/26 02:20:00;;;;;;;3.90;3.50;;;18.70;73.30;;;;;;6125401;23;20144;-82
2023/09/26 02:22:26;;;;;;;3.88;3.47;;;18.70;73.30;;;;;;6100900;23;20152;-82
2023/09/26 02:24:52;;;;;;;3.95;3.53;;;18.80;73.40;;;;;;6151396;22;20575;-82
2023/09/26 02:27:17;;;;;;;3.83;3.10;;;18.70;73.30;;;;;;6125066;22;20150;-83
2023/09/26 02:29:44;;;;;;;4.30;3.53;;;18.80;73.40;;;;;;6151252;22;20472;-82
2023/09/26 02:32:10;;;;;;;4.38;3.67;;;18.80;73.40;;;;;;6151232;22;20231;-82
2023/09/26 02:34:36;;;;;;;3.47;3.17;;;18.80;73.40;;;;;;6125278;23;20189;-83
2023/09/26 02:37:02;;;;;;;3.53;3.20;;;18.80;73.30;;;;;;6125554;23;20507;-82
2023/09/26 02:39:28;;;;;;;4.00;3.30;;;18.80;73.40;;;;;;6125249;23;20235;-82
2023/09/26 02:41:54;;;;;;;4.38;3.40;;;18.80;73.30;;;;;;6125675;23;20832;-82
2023/09/26 02:44:19;;;;;;;3.63;3.20;;;18.70;73.30;;;;;;6151448;22;20136;-82
2023/09/26 02:46:45;;;;;;;4.05;3.38;;;18.70;73.30;;;;;;6101103;23;20150;-83
2023/09/26 02:49:11;;;;;;;3.75;3.40;;;18.70;73.30;;;;;;6101032;23;20524;-82
2023/09/26 02:51:36;;;;;;;4.00;3.33;;;18.70;73.30;;;;;;6151323;22;20144;-83
2023/09/26 02:54:02;;;;;;;3.70;3.30;;;18.80;73.40;;;;;;6101047;23;20594;-82
2023/09/26 02:56:28;;;;;;;3.92;3.40;;;18.80;73.30;;;;;;6100535;23;20140;-82
2023/09/26 02:58:53;;;;;;;3.88;3.45;;;18.80;73.40;;;;;;6125244;23;20186;-82
2023/09/26 03:01:20;;;;;;;3.75;3.28;;;18.80;73.40;;;;;;6125305;23;20609;-82
2023/09/26 03:03:46;;;;;;;3.45;3.15;;;18.70;74.20;;;;;;6125107;23;20148;-82
2023/09/26 03:06:12;;;;;;;3.90;3.50;;;18.80;73.40;;;;;;6100738;23;20226;-82
2023/09/26 03:08:37;;;;;;;3.95;3.40;;;18.80;73.40;;;;;;6124494;23;20159;-82
2023/09/26 03:11:03;;;;;;;4.15;3.65;;;18.80;73.40;;;;;;6125205;23;20154;-82
2023/09/26 03:13:33;;;;;;;4.45;3.28;;;18.80;73.40;;;;;;6125351;23;20151;-81
2023/09/26 03:15:59;;;;;;;3.45;3.15;;;18.70;73.30;;;;;;6125728;23;20138;-82
2023/09/26 03:18:26;;;;;;;4.60;3.58;;;18.80;73.40;;;;;;6100671;23;20140;-82
2023/09/26 03:20:52;;;;;;;3.47;3.17;;;18.80;73.30;;;;;;6125670;23;20151;-82
2023/09/26 03:23:20;;;;;;;4.75;3.38;;;18.80;73.30;;;;;;6100786;23;20144;-82
2023/09/26 03:25:46;;;;;;;3.55;3.25;;;18.80;73.40;;;;;;6124213;23;20140;-84
2023/09/26 03:28:12;;;;;;;4.20;3.55;;;18.70;73.30;;;;;;6100161;23;20195;-82
2023/09/26 03:30:40;;;;;;;3.80;3.40;;;18.80;73.40;;;;;;6125150;23;20151;-82
2023/09/26 03:33:06;;;;;;;4.32;3.65;;;18.80;73.40;;;;;;6124959;23;20537;-82
2023/09/26 03:35:32;;;;;;;4.47;3.50;;;18.80;73.40;;;;;;6100294;23;20175;-82
2023/09/26 03:37:58;;;;;;;3.92;3.30;;;18.80;73.40;;;;;;6150905;22;20900;-83
2023/09/26 03:40:24;;;;;;;3.78;3.40;;;18.80;73.40;;;;;;6124970;23;20568;-82
2023/09/26 03:42:50;;;;;;;3.75;3.25;;;18.80;73.40;;;;;;6125036;23;20477;-82
2023/09/26 03:45:16;;;;;;;4.38;3.33;;;18.70;73.40;;;;;;6150960;22;20167;-82
2023/09/26 03:47:41;;;;;;;3.90;3.50;;;18.70;73.40;;;;;;6150818;23;20143;-82
2023/09/26 03:50:08;;;;;;;3.88;3.33;;;18.80;73.50;;;;;;6150851;22;20166;-83
2023/09/26 03:52:33;;;;;;;3.85;3.45;;;18.70;73.40;;;;;;6124561;23;20666;-83
2023/09/26 03:54:59;;;;;;;4.18;3.28;;;18.80;73.50;;;;;;6100268;23;20222;-82
2023/09/26 03:57:25;;;;;;;3.35;3.05;;;18.70;73.50;;;;;;6124891;23;20148;-82
2023/09/26 03:59:51;;;;;;;3.95;3.53;;;18.70;73.40;;;;;;6150885;22;20133;-81
2023/09/26 04:02:17;;;;;;;4.03;3.40;;;18.80;73.50;;;;;;6100654;23;20148;-82
2023/09/26 04:04:42;;;;;;;4.07;3.47;;;18.80;73.50;;;;;;6124785;23;20152;-81
2023/09/26 04:07:08;;;;;;;4.05;3.30;;;18.80;73.50;;;;;;6124776;23;20239;-83
2023/09/26 04:09:35;;;;;;;3.78;3.38;;;18.70;73.40;;;;;;6099560;23;20151;-82
2023/09/26 04:12:03;;;;;;;4.45;3.53;;;18.70;73.40;;;;;;6124881;23;20214;-82
2023/09/26 04:14:29;;;;;;;4.05;3.10;;;18.70;73.40;;;;;;6124592;23;20193;-82
2023/09/26 04:16:55;;;;;;;3.75;3.25;;;18.70;73.40;;;;;;6150551;23;20158;-83
2023/09/26 04:19:21;;;;;;;3.70;3.33;;;18.80;73.50;;;;;;6124675;23;20579;-82
2023/09/26 04:21:47;;;;;;;4.07;3.25;;;18.70;73.40;;;;;;6124722;23;20143;-82
2023/09/26 04:24:12;;;;;;;3.70;3.30;;;18.80;73.50;;;;;;6150587;22;20210;-83
2023/09/26 04:26:38;;;;;;;3.75;3.20;;;18.80;73.50;;;;;;6150791;22;20143;-82
2023/09/26 04:29:05;;;;;;;3.63;3.15;;;18.70;73.40;;;;;;6150897;22;20199;-82
2023/09/26 04:31:32;;;;;;;3.70;3.30;;;18.70;73.40;;;;;;6100656;23;20494;-82
2023/09/26 04:33:57;;;;;;;3.33;2.90;;;18.80;73.50;;;;;;6150510;22;20242;-82
2023/09/26 04:36:23;;;;;;;4.07;3.53;;;18.70;73.40;;;;;;6150836;22;20135;-82
2023/09/26 04:38:49;;;;;;;3.72;3.33;;;18.80;73.50;;;;;;6151623;22;20510;-82
2023/09/26 04:41:16;;;;;;;3.72;3.35;;;18.70;73.40;;;;;;6126096;23;20629;-82
2023/09/26 04:43:42;;;;;;;4.05;3.42;;;18.80;73.60;;;;;;6125681;23;20151;-82
2023/09/26 04:46:16;;;;;;;4.22;3.58;;;18.70;73.50;;;;;;6125790;23;20464;-82
2023/09/26 04:48:42;;;;;;;3.95;3.28;;;18.70;73.40;;;;;;6101367;23;20197;-82
2023/09/26 04:51:09;;;;;;;3.33;3.03;;;18.70;73.50;;;;;;6101267;23;20148;-82
2023/09/26 04:53:35;;;;;;;4.18;3.50;;;18.70;73.50;;;;;;6151770;22;20189;-82
2023/09/26 04:56:01;;;;;;;3.90;3.50;;;18.70;73.50;;;;;;6151657;22;20136;-82
2023/09/26 04:58:29;;;;;;;3.58;3.10;;;18.70;73.50;;;;;;6125719;23;20144;-82
2023/09/26 05:00:55;;;;;;;3.55;2.95;;;18.70;73.50;;;;;;6125819;23;20144;-82
2023/09/26 05:03:21;;;;;;;3.97;3.40;;;18.70;73.50;;;;;;6101062;23;20486;-82
2023/09/26 05:05:47;;;;;;;4.28;3.72;;;18.80;73.50;;;;;;6125611;23;20217;-82
2023/09/26 05:08:12;;;;;;;3.80;3.38;;;18.70;73.40;;;;;;6150829;22;20166;-81
2023/09/26 05:10:38;;;;;;;4.25;3.50;;;18.70;73.50;;;;;;6151680;22;20579;-82
2023/09/26 05:13:06;;;;;;;3.60;3.30;;;18.80;73.60;;;;;;6101464;23;20171;-82
2023/09/26 05:15:34;;;;;;;3.78;3.38;;;18.70;73.50;;;;;;6125741;23;20170;-83
2023/09/26 05:18:00;;;;;;;4.95;3.47;;;18.80;73.60;;;;;;6125598;23;20178;-82
2023/09/26 05:20:25;;;;;;;3.67;3.28;;;18.70;73.50;;;;;;6151652;23;20131;-82
2023/09/26 05:22:51;;;;;;;4.03;3.35;;;18.80;73.60;;;;;;6101217;23;20167;-82
2023/09/26 05:25:17;;;;;;;3.47;3.17;;;18.70;73.50;;;;;;6125913;23;20219;-82
2023/09/26 05:27:43;;;;;;;4.68;3.78;;;18.70;73.40;;;;;;6151447;22;20262;-82
2023/09/26 05:30:11;;;;;;;3.53;3.22;;;18.80;73.50;;;;;;6151581;22;20575;-82
2023/09/26 05:32:37;;;;;;;3.92;3.15;;;18.70;73.40;;;;;;6151521;22;20170;-82
2023/09/26 05:35:04;;;;;;;3.50;3.08;;;18.80;73.50;;;;;;6125571;23;20171;-82
2023/09/26 05:37:30;;;;;;;3.63;3.13;;;18.70;73.40;;;;;;6101126;23;20490;-82
2023/09/26 05:39:56;;;;;;;4.25;3.10;;;18.80;73.40;;;;;;6125476;23;20128;-82
2023/09/26 05:42:22;;;;;;;3.72;3.35;;;18.80;73.40;;;;;;6125273;23;20143;-83
2023/09/26 05:44:48;;;;;;;3.47;3.10;;;18.80;73.30;;;;;;6100893;23;20228;-82
2023/09/26 05:47:13;;;;;;;4.53;3.40;;;18.80;73.30;;;;;;6151669;23;20132;-82
2023/09/26 05:49:39;;;;;;;3.70;3.10;;;18.90;73.40;;;;;;6100904;23;20144;-82
2023/09/26 05:52:05;;;;;;;3.80;3.10;;;18.80;73.40;;;;;;6100779;23;20491;-82
2023/09/26 05:54:31;;;;;;;3.95;3.35;;;18.80;73.50;;;;;;6151455;22;20483;-82
2023/09/26 05:56:57;;;;;;;3.55;2.88;;;18.80;73.50;;;;;;6125299;23;20151;-82
2023/09/26 05:59:23;;;;;;;3.22;2.92;;;18.80;73.70;;;;;;6151598;23;20445;-82
2023/09/26 06:01:49;;;;;;;3.50;3.20;;;18.70;73.70;;;;;;6125526;23;20212;-82
2023/09/26 06:04:15;;;;;;;4.53;3.15;;;18.70;73.80;;;;;;6125194;23;20578;-81
2023/09/26 06:06:41;;;;;;;3.55;3.22;;;18.70;74.00;;;;;;6151530;22;20861;-82
2023/09/26 06:09:06;;;;;;;3.65;3.28;;;18.70;74.00;;;;;;6150619;22;20132;-82
2023/09/26 06:11:33;;;;;;;3.40;3.10;;;18.70;74.00;;;;;;6125798;23;20265;-82
2023/09/26 06:13:59;;;;;;;3.40;3.10;;;18.70;73.90;;;;;;6151419;22;20171;-82
2023/09/26 06:16:25;;;;;;;3.50;3.10;;;18.70;73.90;;;;;;6151232;22;20177;-82
2023/09/26 06:18:52;;;;;;;3.10;2.80;;;18.70;74.00;;;;;;6125230;23;20148;-82
2023/09/26 06:21:19;;;;;;;3.47;3.17;;;18.80;74.00;;;;;;6125364;23;20143;-82
2023/09/26 06:23:46;;;;;;;3.72;2.90;;;18.80;74.00;;;;;;6151427;22;20182;-81
2023/09/26 06:26:12;;;;;;;4.13;3.30;;;18.70;73.80;;;;;;6151663;22;20594;-81
2023/09/26 06:28:38;;;;;;;3.30;3.00;;;18.80;73.80;;;;;;6151227;22;20187;-82
2023/09/26 06:31:06;;;;;;;3.22;2.92;;;18.80;73.80;;;;;;6151369;22;20516;-81
2023/09/26 06:33:32;;;;;;;3.60;3.10;;;18.80;73.80;;;;;;6151245;23;20163;-81
2023/09/26 06:35:58;;;;;;;3.17;2.88;;;18.80;74.70;;;;;;6150984;22;20146;-81
2023/09/26 06:38:24;;;;;;;3.50;3.10;;;18.80;73.80;;;;;;6101140;23;20175;-81
2023/09/26 06:41:06;;;;;;;3.40;3.10;;;18.80;74.00;;;;;;6151961;23;20211;-81
2023/09/26 06:43:32;;;;;;;3.72;2.97;;;18.80;74.10;;;;;;6127651;23;20159;-80
2023/09/26 06:46:02;;;;;;;4.05;3.05;;;18.70;74.20;;;;;;6157713;22;20594;-81
2023/09/26 06:48:28;;;;;;;3.50;3.20;;;18.70;74.10;;;;;;6156524;22;20201;-81
2023/09/26 06:50:54;;;;;;;3.20;2.90;;;18.70;74.20;;;;;;6157096;22;20132;-81
2023/09/26 06:53:26;;;;;;;3.50;3.20;;;18.70;74.20;;;;;;6131408;23;20151;-81
2023/09/26 06:55:59;;;;;;;3.83;3.30;;;18.80;74.30;;;;;;6176723;23;20202;-81
2023/09/26 06:58:24;;;;;;;3.45;3.05;;;18.70;75.10;;;;;;6151422;23;20142;-81
2023/09/26 07:00:51;;;;;;;3.30;3.00;;;18.80;74.30;;;;;;6151376;22;20218;-80
2023/09/26 07:03:21;;;;;;;4.88;3.40;;;18.80;74.50;;;;;;6151136;22;20136;-81
2023/09/26 07:05:47;;;;;;;3.28;2.97;;;18.80;74.40;;;;;;6176946;23;20159;-81
2023/09/26 07:08:14;;;;;;;3.38;3.08;;;18.80;74.60;;;;;;6150653;23;20147;-80
2023/09/26 07:10:40;;;;;;;3.47;3.17;;;18.80;74.50;;;;;;6151272;23;20139;-81
2023/09/26 07:13:06;;;;;;;3.92;3.33;;;18.80;74.60;;;;;;6151573;22;20140;-81
2023/09/26 07:15:32;;;;;;;3.53;3.20;;;18.80;74.70;;;;;;6124999;23;20182;-80
2023/09/26 07:18:03;;;;;;;3.65;3.00;;;18.80;75.50;;;;;;6125755;23;20136;-81
2023/09/26 07:20:29;;;;;;;3.63;3.00;;;18.80;74.80;;;;;;6151411;22;20139;-81
2023/09/26 07:22:56;;;;;;;3.80;3.40;;;18.80;74.80;;;;;;6151538;22;20144;-81
2023/09/26 07:25:21;;;;;;;3.22;2.92;;;18.80;75.00;;;;;;6152091;22;20224;-81
2023/09/26 07:27:47;;;;;;;3.17;2.88;;;18.80;74.90;;;;;;6119847;22;20203;-81
2023/09/26 07:30:17;;;;;;;3.33;3.03;;;18.80;75.00;;;;;;6121413;23;20442;-81
2023/09/26 07:32:43;;;;;;;3.28;2.97;;;18.80;74.90;;;;;;6071262;23;20495;-81
2023/09/26 07:35:09;;;;;;;3.83;3.22;;;18.80;74.90;;;;;;6120717;23;20244;-81
2023/09/26 07:37:35;;;;;;;3.42;3.03;;;18.80;75.00;;;;;;6121325;23;20530;-82
2023/09/26 07:40:04;;;;;;;3.38;3.08;;;18.80;75.00;;;;;;6121443;23;20211;-81
2023/09/26 07:42:31;;;;;;;3.88;3.22;;;18.80;75.00;;;;;;6120178;23;20152;-81
2023/09/26 07:44:58;;;;;;;3.58;3.22;;;18.80;75.00;;;;;;6121657;23;20140;-81
2023/09/26 07:47:24;;;;;;;3.55;3.25;;;18.80;75.00;;;;;;6120055;23;20234;-80
2023/09/26 07:49:50;;;;;;;3.40;3.10;;;18.80;75.10;;;;;;6121538;23;20533;-81
2023/09/26 07:52:16;;;;;;;3.72;3.28;;;18.80;75.10;;;;;;6121347;23;20641;-81
2023/09/26 07:54:42;;;;;;;3.25;2.92;;;18.80;75.10;;;;;;6121524;23;20273;-81
2023/09/26 07:57:07;;;;;;;3.53;3.22;;;18.90;75.30;;;;;;6119723;23;20148;-81
2023/09/26 07:59:34;;;;;;;3.38;3.08;;;18.70;75.10;;;;;;6121534;23;20132;-80
2023/09/26 08:01:59;;;;;;;4.15;3.33;;;18.80;75.20;;;;;;6121482;23;20202;-81
2023/09/26 08:04:25;;;;;;;3.10;2.80;;;18.80;75.20;;;;;;6119877;23;20534;-81
2023/09/26 08:06:51;;;;;;;3.22;2.92;;;18.90;75.40;;;;;;6121468;23;20136;-80
2023/09/26 08:09:17;;;;;;;3.63;3.08;;;18.80;75.20;;;;;;6094713;23;20278;-81
2023/09/26 08:11:43;;;;;;;3.58;3.28;;;18.90;75.30;;;;;;6119462;23;20156;-82
2023/09/26 08:14:09;;;;;;;3.40;3.10;;;18.80;75.20;;;;;;6120514;23;20637;-81
2023/09/26 08:16:35;;;;;;;3.85;3.20;;;18.90;75.30;;;;;;6121452;23;20591;-82
2023/09/26 08:19:01;;;;;;;3.70;3.40;;;18.90;75.30;;;;;;6121180;23;20155;-81
2023/09/26 08:21:27;;;;;;;4.35;3.67;;;18.80;75.30;;;;;;6122102;23;20560;-82
2023/09/26 08:23:54;;;;;;;3.72;3.42;;;18.80;75.30;;;;;;6121212;23;20211;-81
2023/09/26 08:26:20;;;;;;;4.15;3.42;;;18.80;75.40;;;;;;6120834;23;20597;-81
2023/09/26 08:28:46;;;;;;;3.65;3.35;;;18.80;75.40;;;;;;6139144;22;20226;-82
2023/09/26 08:31:14;;;;;;;3.50;3.20;;;18.80;75.50;;;;;;6150611;22;20144;-82
2023/09/26 08:33:41;;;;;;;3.90;3.50;;;18.80;75.50;;;;;;6150468;23;20139;-82
2023/09/26 08:36:16;;;;;;;4.55;3.40;;;18.90;75.60;;;;;;6100249;23;20226;-82
2023/09/26 08:38:43;;;;;;;3.90;3.10;;;18.80;75.50;;;;;;6150465;22;20566;-82
2023/09/26 08:41:09;;;;;;;4.50;3.38;;;18.80;75.60;;;;;;6150641;23;20132;-82
2023/09/26 08:43:36;;;;;;;3.60;3.30;;;18.80;75.60;;;;;;6150391;22;20666;-82
2023/09/26 08:46:01;;;;;;;3.65;3.33;;;18.90;75.80;;;;;;6150767;22;20140;-82
2023/09/26 08:48:27;;;;;;;3.85;3.40;;;18.90;75.80;;;;;;6124974;23;20503;-82
2023/09/26 08:50:53;;;;;;;3.58;3.28;;;18.90;75.80;;;;;;6124258;23;20139;-82
2023/09/26 08:53:19;;;;;;;4.68;3.45;;;18.90;75.80;;;;;;6150528;22;20462;-82
2023/09/26 08:55:46;;;;;;;3.80;3.42;;;18.80;75.80;;;;;;6150224;22;20246;-82
2023/09/26 08:58:13;;;;;;;5.03;3.53;;;18.90;75.80;;;;;;6150390;22;20448;-82
2023/09/26 09:00:39;;;;;;;3.40;3.03;;;18.90;75.80;;;;;;6150308;23;20128;-82
2023/09/26 09:03:05;;;;;;;4.40;3.70;;;18.90;75.80;;;;;;6149805;23;20175;-82
2023/09/26 09:05:30;;;;;;;3.75;3.35;;;18.90;76.00;;;;;;6150745;22;20140;-82
2023/09/26 09:07:56;;;;;;;4.85;3.35;;;18.90;75.90;;;;;;6124161;23;20155;-81
2023/09/26 09:10:23;;;;;;;4.20;3.50;;;18.90;75.90;;;;;;6124703;23;20193;-81
2023/09/26 09:12:50;;;;;;;3.85;3.42;;;18.90;76.00;;;;;;6150938;22;20171;-82
2023/09/26 09:15:23;;;;;;;3.83;3.45;;;18.90;76.00;;;;;;6125229;23;20209;-81
2023/09/26 09:17:49;;;;;;;3.95;3.55;;;19.00;76.10;;;;;;6201535;23;20156;-82
2023/09/26 09:20:30;;;;;;;4.60;3.65;;;18.90;76.00;;;;;;6125127;23;20152;-82
2023/09/26 09:23:01;;;;;;;4.00;3.35;;;19.00;76.10;;;;;;6150419;23;20215;-82
2023/09/26 09:25:30;;;;;;;5.15;3.42;;;18.90;76.10;;;;;;6152384;22;20133;-82
2023/09/26 09:27:58;;;;;;;4.38;3.35;;;19.00;76.20;;;;;;6151528;22;20191;-82
2023/09/26 09:30:24;;;;;;;4.40;3.85;;;19.00;76.30;;;;;;6101318;23;20494;-82
2023/09/26 09:32:50;;;;;;;4.10;3.67;;;19.00;76.20;;;;;;6101129;23;20208;-81
2023/09/26 09:35:17;;;;;;;3.90;3.35;;;18.90;76.20;;;;;;6125549;23;20217;-81
2023/09/26 09:37:45;;;;;;;3.85;3.45;;;19.00;76.30;;;;;;6151442;22;20143;-81
2023/09/26 09:40:15;;;;;;;4.03;3.63;;;19.00;76.30;;;;;;6125353;23;20147;-81
2023/09/26 09:42:41;;;;;;;3.75;3.25;;;19.00;76.50;;;;;;6127389;23;20163;-81
2023/09/26 09:45:09;;;;;;;3.60;3.30;;;19.00;76.50;;;;;;6152296;23;20201;-83
2023/09/26 09:47:37;;;;;;;4.32;3.92;;;18.90;76.50;;;;;;6103047;23;20132;-82
2023/09/26 09:50:03;;;;;;;4.10;3.70;;;19.00;76.50;;;;;;6151366;22;20140;-82
2023/09/26 09:52:31;;;;;;;4.47;3.50;;;19.00;76.30;;;;;;6125429;23;20185;-82
2023/09/26 09:54:57;;;;;;;4.03;3.63;;;19.10;76.30;;;;;;6151562;22;20163;-82
2023/09/26 09:57:23;;;;;;;4.18;3.70;;;19.10;76.30;;;;;;6125507;23;20143;-81
2023/09/26 09:59:52;;;;;;;3.88;3.50;;;19.10;76.20;;;;;;6151381;22;20142;-82
2023/09/26 10:02:18;;;;;;;3.55;3.25;;;19.10;76.30;;;;;;6126164;23;20159;-81
2023/09/26 10:04:47;;;;;;;3.67;3.38;;;19.00;76.20;;;;;;6151659;23;20147;-80
2023/09/26 10:07:12;;;;;;;4.22;3.75;;;19.20;76.40;;;;;;6151480;22;20186;-82
2023/09/26 10:09:39;;;;;;;4.15;3.75;;;19.20;76.20;;;;;;6150556;22;20575;-82
2023/09/26 10:12:05;;;;;;;4.43;3.40;;;19.20;76.30;;;;;;6125798;23;20197;-81
2023/09/26 10:14:31;;;;;;;3.97;3.58;;;19.20;76.20;;;;;;6151242;22;20602;-81
2023/09/26 10:16:57;;;;;;;5.28;3.88;;;19.20;76.20;;;;;;6125169;23;20563;-82
2023/09/26 10:19:25;;;;;;;4.68;3.72;;;19.20;76.10;;;;;;6124526;23;20163;-81
2023/09/26 10:21:52;;;;;;;4.75;3.53;;;19.20;76.30;;;;;;6125621;23;20459;-82
2023/09/26 10:24:21;;;;;;;4.78;3.92;;;19.30;76.50;;;;;;6101041;23;20188;-82
2023/09/26 10:26:48;;;;;;;4.75;3.95;;;19.20;76.40;;;;;;6151264;22;20136;-81
2023/09/26 10:29:28;;;;;;;4.15;3.75;;;19.20;76.30;;;;;;6120174;22;20232;-81
2023/09/26 10:32:04;;;;;;;4.25;3.58;;;19.20;77.20;;;;;;6122010;23;20151;-82
2023/09/26 10:34:32;;;;;;;4.35;3.78;;;19.30;76.50;;;;;;6120178;23;20203;-82
2023/09/26 10:36:58;;;;;;;4.75;4.22;;;19.30;76.30;;;;;;6072027;23;20592;-84
2023/09/26 10:39:32;;;;;;;4.53;3.58;;;19.30;76.20;;;;;;6120041;23;20556;-82
2023/09/26 10:42:01;;;;;;;4.32;3.75;;;19.30;76.60;;;;;;6121682;23;20214;-82
2023/09/26 10:44:27;;;;;;;4.75;3.83;;;19.20;76.50;;;;;;6120107;23;20137;-82
2023/09/26 10:46:53;;;;;;;3.85;3.50;;;19.20;76.60;;;;;;6121795;23;20464;-81
2023/09/26 10:49:19;;;;;;;3.63;3.33;;;19.30;76.70;;;;;;6121892;23;20172;-82
2023/09/26 10:51:45;;;;;;;3.97;3.58;;;19.20;76.70;;;;;;6120246;23;20140;-82
2023/09/26 10:54:10;;;;;;;4.65;3.78;;;19.20;76.70;;;;;;6121638;23;20476;-82
2023/09/26 10:56:36;;;;;;;4.25;3.85;;;19.30;76.80;;;;;;6120255;23;20230;-82
2023/09/26 10:59:02;;;;;;;3.80;3.40;;;19.30;76.90;;;;;;6120429;23;20562;-82
2023/09/26 11:01:37;;;;;;;4.28;3.80;;;19.20;76.90;;;;;;6121219;23;20139;-81
2023/09/26 11:04:03;;;;;;;4.35;3.70;;;19.30;77.00;;;;;;6121269;23;20159;-82
2023/09/26 11:06:29;;;;;;;4.20;3.72;;;19.20;76.90;;;;;;6121342;23;20199;-82
2023/09/26 11:08:55;;;;;;;4.57;4.00;;;19.20;77.00;;;;;;6121443;23;20140;-82
2023/09/26 11:11:21;;;;;;;5.10;3.72;;;19.20;76.90;;;;;;6121433;23;20136;-81
2023/09/26 11:13:47;;;;;;;4.13;3.72;;;19.20;77.00;;;;;;6095026;23;20144;-82
2023/09/26 11:16:13;;;;;;;4.32;3.75;;;19.30;77.10;;;;;;6120801;23;20158;-82
2023/09/26 11:18:39;;;;;;;3.85;3.50;;;19.30;77.10;;;;;;6097631;23;20212;-83
2023/09/26 11:21:05;;;;;;;4.63;4.00;;;19.30;77.10;;;;;;6122416;23;20462;-82
2023/09/26 11:23:35;;;;;;;4.10;3.70;;;19.20;77.10;;;;;;6119947;23;20135;-82
2023/09/26 11:26:03;;;;;;;4.93;3.83;;;19.30;77.10;;;;;;6121854;23;20144;-82
2023/09/26 11:28:30;;;;;;;4.30;3.67;;;19.20;77.10;;;;;;6135938;23;20215;-82
2023/09/26 11:30:57;;;;;;;3.78;3.38;;;19.30;77.20;;;;;;6125465;23;20143;-82
2023/09/26 11:33:23;;;;;;;4.10;3.70;;;19.40;77.30;;;;;;6151085;22;20189;-82
2023/09/26 11:35:49;;;;;;;4.45;3.78;;;19.30;77.20;;;;;;6150865;23;20621;-81
2023/09/26 11:38:15;;;;;;;4.78;3.80;;;19.30;77.10;;;;;;6150780;22;20135;-82
2023/09/26 11:40:41;;;;;;;5.43;3.60;;;19.30;77.20;;;;;;6150944;22;20215;-82
2023/09/26 11:43:06;;;;;;;4.50;3.75;;;19.40;77.30;;;;;;6150920;22;20566;-83
2023/09/26 11:45:32;;;;;;;4.30;3.88;;;19.30;77.20;;;;;;6099693;23;20161;-82
2023/09/26 11:47:58;;;;;;;4.22;3.75;;;19.40;77.20;;;;;;6150754;22;20567;-82
2023/09/26 11:50:25;;;;;;;4.32;3.47;;;19.40;77.40;;;;;;6150665;22;20739;-83
2023/09/26 11:52:51;;;;;;;4.35;3.67;;;19.40;77.30;;;;;;6124964;23;20147;-82
2023/09/26 11:55:18;;;;;;;4.05;3.45;;;19.40;77.40;;;;;;6150736;23;20214;-83
2023/09/26 11:57:44;;;;;;;4.82;3.65;;;19.40;77.40;;;;;;6125233;23;20190;-83
2023/09/26 12:00:15;;;;;;;4.75;3.65;;;19.30;77.20;;;;;;6151050;22;20175;-81
2023/09/26 12:02:43;;;;;;;3.97;3.53;;;19.40;77.40;;;;;;6125492;23;20552;-82
2023/09/26 12:05:11;;;;;;;3.90;3.47;;;19.40;77.40;;;;;;6124628;23;20155;-82
2023/09/26 12:07:38;;;;;;;4.00;3.60;;;19.40;77.50;;;;;;6125114;23;20482;-82
2023/09/26 12:10:05;;;;;;;4.32;3.58;;;19.40;77.50;;;;;;6124205;23;20151;-82
2023/09/26 12:12:31;;;;;;;4.53;4.10;;;19.40;77.70;;;;;;6151003;22;20136;-82
2023/09/26 12:15:19;;;;;;;4.10;3.70;;;19.40;77.70;;;;;;6150469;22;20491;-82
2023/09/26 12:17:46;;;;;;;4.32;3.83;;;19.50;77.70;;;;;;6100470;23;20616;-81
2023/09/26 12:20:13;;;;;;;3.78;3.42;;;19.40;77.60;;;;;;6124965;23;20136;-82
2023/09/26 12:22:39;;;;;;;4.63;4.00;;;19.40;77.80;;;;;;6150752;22;20136;-82
2023/09/26 12:25:05;;;;;;;4.50;3.92;;;19.40;77.60;;;;;;6124689;23;20217;-82
2023/09/26 12:27:31;;;;;;;3.92;3.53;;;19.40;77.80;;;;;;6124367;22;20147;-83
2023/09/26 12:29:57;;;;;;;5.10;3.83;;;19.50;77.80;;;;;;6150610;22;20542;-83
2023/09/26 12:32:23;;;;;;;4.55;3.97;;;19.50;78.00;;;;;;6150961;22;20164;-82
2023/09/26 12:34:49;;;;;;;4.45;3.80;;;19.50;77.80;;;;;;6150507;22;20217;-83
2023/09/26 12:37:14;;;;;;;4.10;3.70;;;19.40;77.40;;;;;;6150461;22;20535;-83
2023/09/26 12:39:40;;;;;;;4.90;4.03;;;19.50;77.60;;;;;;6150840;22;20150;-82
2023/09/26 12:42:05;;;;;;;4.35;3.95;;;19.50;77.60;;;;;;6100351;23;20579;-82
2023/09/26 12:44:36;;;;;;;4.10;3.70;;;19.50;77.70;;;;;;6150895;22;20183;-82